Time;durP1;ratioP1;P1;durP2;ratioP2;P2;SDS_P1;SDS_P2;PMS_P1;PMS_P2;Temp;Humidity;BMP_temperature;BMP_pressure;BME280_temperature;BME280_humidity;BME280_pressure;Samples;Min_cycle;Max_cycle;Signal;HPM_P1;HPM_P2
2022/05/19 00:01:42;;;;;;;4.85;1.27;;;;;;;19.23;38.06;101715.78;4935746;29;20079;-79
2022/05/19 00:04:10;;;;;;;2.58;1.17;;;;;;;19.22;39.27;101711.41;4935950;29;20135;-81
2022/05/19 00:06:40;;;;;;;4.05;1.38;;;;;;;19.11;37.71;101706.94;4935861;29;20115;-82
2022/05/19 00:09:09;;;;;;;4.70;1.70;;;;;;;19.13;38.33;101713.94;4936370;29;20052;-82
2022/05/19 00:11:38;;;;;;;5.38;1.42;;;;;;;19.20;39.05;101707.00;4935719;29;20509;-83
2022/05/19 00:14:07;;;;;;;4.43;1.25;;;;;;;19.16;37.23;101718.34;4936717;29;20047;-81
2022/05/19 00:16:36;;;;;;;5.22;1.30;;;;;;;19.09;37.39;101713.91;4936082;29;20052;-85
2022/05/19 00:19:04;;;;;;;3.58;1.48;;;;;;;19.08;36.98;101712.13;4938012;29;20079;-86
2022/05/19 00:21:33;;;;;;;4.32;1.17;;;;;;;19.07;38.54;101715.63;4939114;29;20064;-85
2022/05/19 00:24:04;;;;;;;6.70;1.50;;;;;;;18.93;37.54;101718.97;4937014;29;20060;-82
2022/05/19 00:26:32;;;;;;;5.90;1.42;;;;;;;18.93;38.17;101711.13;4936285;29;20114;-85
2022/05/19 00:29:00;;;;;;;5.20;1.20;;;;;;;18.93;38.47;101698.00;4935883;29;20485;-87
2022/05/19 00:31:29;;;;;;;4.63;1.40;;;;;;;18.99;37.79;101708.56;4936357;29;20052;-86
2022/05/19 00:33:58;;;;;;;5.57;1.55;;;;;;;18.97;37.60;101709.41;4935899;29;20056;-84
2022/05/19 00:36:27;;;;;;;7.28;1.48;;;;;;;18.82;38.58;101712.75;4936139;29;20138;-84
2022/05/19 00:38:55;;;;;;;3.00;1.10;;;;;;;18.76;37.22;101707.38;4936697;29;20130;-86
2022/05/19 00:41:26;;;;;;;5.68;1.55;;;;;;;18.56;39.04;101707.19;4935295;29;20052;-83
2022/05/19 00:44:00;;;;;;;5.43;1.92;;;;;;;18.45;39.04;101708.78;4935501;29;20079;-85
2022/05/19 00:46:34;;;;;;;8.25;2.00;;;;;;;18.32;38.85;101713.00;4935364;29;20110;-88
2022/05/19 00:49:05;;;;;;;3.88;1.58;;;;;;;18.36;39.72;101720.03;4937111;29;20044;-88
2022/05/19 00:51:43;;;;;;;4.53;1.38;;;;;;;18.38;39.52;101705.22;4935006;28;20139;-86
2022/05/19 00:54:17;;;;;;;4.28;1.10;;;;;;;18.41;39.53;101715.72;4935903;29;20477;-83
2022/05/19 00:57:03;;;;;;;5.43;1.23;;;;;;;18.32;39.84;101713.00;4936364;29;20091;-87
2022/05/19 00:59:37;;;;;;;4.57;1.42;;;;;;;18.21;38.69;101708.50;4938955;29;20055;-87
2022/05/19 01:02:10;;;;;;;3.15;1.50;;;;;;;18.19;39.57;101707.59;4938820;29;20055;-88
2022/05/19 01:04:47;;;;;;;5.43;1.67;;;;;;;18.16;39.32;101696.19;4938634;29;20051;-88
2022/05/19 01:07:27;;;;;;;5.55;1.92;;;;;;;18.06;40.28;101707.41;4937945;29;20108;-88
2022/05/19 01:09:58;;;;;;;6.93;1.88;;;;;;;17.90;41.33;101703.69;4937949;29;20119;-87
2022/05/19 01:12:31;;;;;;;5.80;1.80;;;;;;;17.89;41.93;101701.91;4936285;29;20047;-87
2022/05/19 01:15:12;;;;;;;;;;;;;;;;;;;;;
2022/05/19 01:17:41;;;;;;;10.00;1.98;;;;;;;17.74;41.76;101700.81;4937205;29;20048;-86
2022/05/19 01:20:15;;;;;;;9.00;1.60;;;;;;;17.79;41.78;101707.00;4936417;29;20101;-87
2022/05/19 01:22:53;;;;;;;7.43;1.50;;;;;;;17.79;40.93;101699.13;4940693;29;20052;-88
2022/05/19 01:25:32;;;;;;;4.63;1.60;;;;;;;17.76;41.80;101713.94;4937913;29;20111;-89
2022/05/19 01:28:08;;;;;;;5.97;1.75;;;;;;;17.74;42.01;101716.53;4938273;29;20056;-86
2022/05/19 01:30:39;;;;;;;4.05;1.40;;;;;;;17.69;41.27;101718.19;4937172;29;20077;-87
2022/05/19 01:33:10;;;;;;;5.68;2.15;;;;;;;17.56;40.64;101718.84;4935768;29;20066;-87
2022/05/19 01:35:39;;;;;;;4.38;1.52;;;;;;;17.46;40.15;101716.94;4935806;29;20514;-84
2022/05/19 01:38:15;;;;;;;6.60;1.30;;;;;;;17.42;40.74;101720.38;4935397;29;20500;-86
2022/05/19 01:40:57;;;;;;;8.57;1.30;;;;;;;17.37;40.90;101717.69;4935247;29;20502;-84
2022/05/19 01:43:33;;;;;;;5.50;1.67;;;;;;;17.35;40.18;101716.75;4934599;29;20052;-87
2022/05/19 01:46:11;;;;;;;6.78;1.70;;;;;;;17.26;42.10;101721.84;4934591;29;20445;-83
2022/05/19 01:48:46;;;;;;;5.70;1.60;;;;;;;17.23;42.10;101717.44;4936691;29;20047;-90
2022/05/19 01:51:21;;;;;;;4.22;1.45;;;;;;;17.20;41.78;101714.75;4939039;28;20059;-85
2022/05/19 01:53:55;;;;;;;6.70;1.70;;;;;;;17.20;42.40;101712.13;4938308;29;20789;-88
2022/05/19 01:56:31;;;;;;;4.72;1.50;;;;;;;17.25;42.83;101728.81;4938647;29;20091;-88
2022/05/19 01:59:14;;;;;;;6.00;2.28;;;;;;;17.26;42.61;101724.44;4942798;29;20075;-90
2022/05/19 02:01:49;;;;;;;5.38;1.60;;;;;;;17.28;43.56;101722.75;4941951;29;20052;-88
2022/05/19 02:04:27;;;;;;;4.10;1.65;;;;;;;17.31;42.78;101723.66;4939073;29;20059;-87
2022/05/19 02:07:02;;;;;;;6.65;1.50;;;;;;;17.30;42.66;101714.06;4942467;29;20040;-87
2022/05/19 02:09:35;;;;;;;5.15;1.70;;;;;;;17.17;41.72;101714.69;4942954;29;20055;-84
2022/05/19 02:12:05;;;;;;;3.92;1.55;;;;;;;17.06;41.71;101700.56;4939841;29;20062;-86
2022/05/19 02:14:37;;;;;;;6.10;1.80;;;;;;;17.04;43.52;101710.09;4952045;29;20051;-87
2022/05/19 02:17:12;;;;;;;5.63;1.52;;;;;;;16.98;42.70;101716.13;4939848;29;20514;-87
2022/05/19 02:19:46;;;;;;;4.28;1.48;;;;;;;16.91;42.74;101722.97;4936217;29;20626;-88
2022/05/19 02:22:19;;;;;;;7.85;1.75;;;;;;;16.82;43.80;101722.78;4917466;29;20055;-88
2022/05/19 02:27:54;;;;;;;4.80;1.55;;;;;;;16.61;43.94;101746.72;4915676;29;19983;-87
2022/05/19 02:30:41;;;;;;;5.85;1.50;;;;;;;16.57;44.01;101752.75;4919216;29;20056;-86
2022/05/19 02:33:31;;;;;;;4.68;1.50;;;;;;;16.50;44.57;101743.88;4919419;29;20048;-88
2022/05/19 02:36:24;;;;;;;5.65;1.52;;;;;;;16.36;45.74;101755.78;4934137;29;20047;-88
2022/05/19 02:39:16;;;;;;;4.90;1.30;;;;;;;16.22;46.20;101749.38;4941616;29;20071;-88
2022/05/19 02:42:05;;;;;;;3.92;1.63;;;;;;;16.09;47.92;101761.28;4941202;29;20062;-88
2022/05/19 02:44:47;;;;;;;5.63;1.60;;;;;;;15.92;47.58;101760.88;4936879;29;20048;-86
2022/05/19 02:47:17;;;;;;;;;;;;;;;15.83;47.56;101758.06;4938554;29;20056;-88
2022/05/19 02:49:45;;;;;;;7.47;1.73;;;;;;;15.70;47.51;101749.91;4935503;28;19945;-87
2022/05/19 02:52:14;;;;;;;6.45;1.52;;;;;;;15.61;47.64;101744.44;4936066;29;20197;-86
2022/05/19 02:54:43;;;;;;;7.88;1.30;;;;;;;15.50;49.33;101748.50;4938401;29;20439;-84
2022/05/19 02:57:11;;;;;;;5.82;1.75;;;;;;;15.36;49.11;101766.41;4935109;29;20043;-88
2022/05/19 02:59:43;;;;;;;4.63;1.65;;;;;;;15.28;48.97;101766.22;4935162;29;20056;-86
2022/05/19 03:02:11;;;;;;;3.23;1.27;;;;;;;15.27;49.75;101777.47;4937150;29;20052;-85
2022/05/19 03:04:44;;;;;;;4.43;1.45;;;;;;;15.21;50.48;101773.81;4935051;29;20056;-86
2022/05/19 03:07:23;;;;;;;5.78;1.75;;;;;;;15.15;51.23;101784.09;4936335;29;20847;-87
2022/05/19 03:09:53;;;;;;;3.65;1.30;;;;;;;15.05;50.99;101785.59;4937674;29;20056;-87
2022/05/19 03:12:23;;;;;;;7.22;1.42;;;;;;;14.98;51.57;101775.81;4935397;29;20844;-86
2022/05/19 03:14:52;;;;;;;6.80;1.75;;;;;;;14.95;50.69;101778.34;4934474;29;20052;-85
2022/05/19 03:17:20;;;;;;;4.15;1.48;;;;;;;14.85;52.28;101765.06;4933068;29;20055;-85
2022/05/19 03:19:54;;;;;;;5.55;1.42;;;;;;;14.84;52.86;101773.72;4932960;29;20048;-87
2022/05/19 03:22:24;;;;;;;3.67;1.40;;;;;;;14.78;55.09;101768.31;4935984;29;20122;-88
2022/05/19 03:25:01;;;;;;;5.65;1.40;;;;;;;14.75;55.58;101772.56;4936420;29;20150;-87
2022/05/19 03:27:29;;;;;;;12.57;1.98;;;;;;;14.71;56.96;101776.81;4933171;29;20054;-84
2022/05/19 03:29:58;;;;;;;5.97;1.42;;;;;;;14.66;53.22;101774.06;4934392;29;20561;-88
2022/05/19 03:32:26;;;;;;;8.23;1.67;;;;;;;14.64;56.56;101769.66;4932759;29;20056;-86
2022/05/19 03:34:57;;;;;;;5.57;1.52;;;;;;;14.59;54.77;101763.41;4933643;29;20051;-86
2022/05/19 03:37:25;;;;;;;6.70;1.52;;;;;;;14.58;55.93;101780.75;4933308;29;20047;-85
2022/05/19 03:39:54;;;;;;;3.75;1.73;;;;;;;14.54;55.10;101778.00;4933136;29;20498;-84
2022/05/19 03:42:23;;;;;;;5.65;1.58;;;;;;;14.46;54.42;101773.44;4932886;29;20482;-85
2022/05/19 03:44:51;;;;;;;6.90;1.27;;;;;;;14.40;53.80;101775.84;4933337;29;20060;-86
2022/05/19 03:47:20;;;;;;;6.43;1.50;;;;;;;14.33;53.47;101775.63;4933669;29;20083;-86
2022/05/19 03:49:50;;;;;;;6.53;1.65;;;;;;;14.21;53.34;101777.03;4934125;28;20514;-86
2022/05/19 03:52:29;;;;;;;6.72;1.60;;;;;;;14.14;53.35;101777.66;4934171;29;20066;-88
2022/05/19 03:54:58;;;;;;;3.88;1.40;;;;;;;14.01;53.29;101781.59;4933896;29;20071;-86
2022/05/19 03:57:26;;;;;;;5.68;1.65;;;;;;;13.92;54.04;101778.69;4936639;29;20059;-86
2022/05/19 03:59:55;;;;;;;6.70;1.30;;;;;;;13.82;54.51;101779.25;4936344;29;20058;-83
2022/05/19 04:02:23;;;;;;;8.65;1.25;;;;;;;13.73;55.13;101792.84;4935393;29;20086;-85
2022/05/19 04:04:56;;;;;;;3.83;1.42;;;;;;;13.60;54.23;101783.72;4933326;29;20498;-85
2022/05/19 04:07:27;;;;;;;7.30;1.38;;;;;;;13.55;54.21;101787.91;4932710;29;20425;-87
2022/05/19 04:09:56;;;;;;;5.10;1.27;;;;;;;13.49;54.87;101790.31;4934628;29;20076;-84
2022/05/19 04:12:24;;;;;;;6.32;1.40;;;;;;;13.38;55.43;101783.84;4933100;29;20044;-85
2022/05/19 04:14:53;;;;;;;5.05;2.10;;;;;;;13.33;56.07;101782.78;4948161;29;20054;-88
2022/05/19 04:17:22;;;;;;;4.90;1.65;;;;;;;13.26;56.62;101785.97;4932989;29;20090;-87
2022/05/19 04:19:50;;;;;;;3.38;1.42;;;;;;;13.18;56.54;101788.31;4933166;29;20619;-87
2022/05/19 04:22:19;;;;;;;5.05;1.60;;;;;;;13.13;57.76;101801.16;4932340;29;20134;-87
2022/05/19 04:24:49;;;;;;;7.60;1.88;;;;;;;13.09;57.15;101799.25;4933562;29;20048;-87
2022/05/19 04:27:18;;;;;;;6.10;1.80;;;;;;;13.04;57.21;101800.81;4932325;29;20057;-84
2022/05/19 04:29:54;;;;;;;7.63;1.48;;;;;;;13.01;57.17;101805.91;4933375;29;20103;-85
2022/05/19 04:32:25;;;;;;;3.47;1.23;;;;;;;12.95;57.24;101790.97;4935667;29;20537;-85
2022/05/19 04:34:54;;;;;;;3.05;1.45;;;;;;;12.92;58.01;101795.19;4938102;29;20193;-85
2022/05/19 04:37:22;;;;;;;4.68;1.27;;;;;;;12.90;58.01;101797.72;4937171;29;20052;-84
2022/05/19 04:39:53;;;;;;;8.10;2.17;;;;;;;12.85;56.98;101793.16;4937585;29;20326;-85
2022/05/19 04:42:21;;;;;;;7.53;1.05;;;;;;;12.83;57.61;101794.81;4938481;29;20062;-83
2022/05/19 04:44:50;;;;;;;4.95;1.40;;;;;;;12.73;57.12;101789.28;4936190;29;20063;-86
2022/05/19 04:47:18;;;;;;;7.72;1.60;;;;;;;12.73;57.75;101784.09;4935120;29;20044;-82
2022/05/19 04:49:46;;;;;;;3.15;0.82;;;;;;;12.65;57.76;101788.13;4935977;28;20490;-83
2022/05/19 04:52:15;;;;;;;6.22;1.17;;;;;;;12.58;58.34;101792.22;4935265;29;20063;-84
2022/05/19 04:54:44;;;;;;;6.15;1.55;;;;;;;12.49;58.27;101778.00;4938989;29;20116;-82
2022/05/19 04:57:14;;;;;;;3.55;1.13;;;;;;;12.49;58.58;101783.19;4935433;29;20140;-81
2022/05/19 04:59:43;;;;;;;2.70;0.90;;;;;;;12.44;58.90;101782.09;4935974;29;20048;-81
2022/05/19 05:02:13;;;;;;;4.88;1.27;;;;;;;12.38;59.05;101787.09;4934972;29;20114;-81
2022/05/19 05:04:41;;;;;;;4.63;1.25;;;;;;;12.30;59.25;101779.91;4935534;29;20135;-82
2022/05/19 05:07:10;;;;;;;5.65;1.60;;;;;;;12.26;60.17;101780.59;4935397;29;20131;-80
2022/05/19 05:09:38;;;;;;;3.22;1.20;;;;;;;12.22;61.00;101783.00;4935109;29;20051;-82
2022/05/19 05:12:08;;;;;;;7.07;1.92;;;;;;;12.13;60.88;101787.00;4934491;29;20052;-83
2022/05/19 05:14:38;;;;;;;2.53;1.05;;;;;;;12.06;61.72;101791.91;4935135;29;20052;-78
2022/05/19 05:17:06;;;;;;;5.47;1.55;;;;;;;12.01;61.34;101788.25;4935059;29;20502;-82
2022/05/19 05:19:35;;;;;;;5.15;1.50;;;;;;;11.93;61.13;101787.91;4934479;29;20110;-85
2022/05/19 05:22:04;;;;;;;2.92;1.00;;;;;;;11.88;61.17;101800.69;4935086;29;20051;-82
2022/05/19 05:24:33;;;;;;;4.53;1.25;;;;;;;11.83;61.46;101797.00;4935107;29;20051;-82
2022/05/19 05:27:03;;;;;;;4.40;0.95;;;;;;;11.76;61.23;101802.75;4934312;29;20189;-81
2022/05/19 05:29:31;;;;;;;3.33;1.65;;;;;;;11.72;60.65;101800.84;4935029;29;20052;-81
2022/05/19 05:32:01;;;;;;;5.75;1.67;;;;;;;11.64;60.57;101799.66;4934318;29;20546;-81
2022/05/19 05:34:30;;;;;;;5.65;1.10;;;;;;;11.59;60.58;101808.94;4934099;29;20146;-81
2022/05/19 05:36:58;;;;;;;4.30;1.48;;;;;;;11.53;61.05;101809.56;4934172;29;20494;-81
2022/05/19 05:39:27;;;;;;;3.25;1.50;;;;;;;11.47;59.91;101805.00;4934198;29;20052;-80
2022/05/19 05:41:55;;;;;;;6.20;1.55;;;;;;;11.41;61.40;101804.75;4934032;29;20044;-82
2022/05/19 05:44:24;;;;;;;4.05;1.30;;;;;;;11.37;60.76;101792.47;4933820;29;20079;-81
2022/05/19 05:46:52;;;;;;;2.85;1.52;;;;;;;11.32;62.23;101794.00;4934442;29;20063;-81
2022/05/19 05:49:23;;;;;;;2.63;1.08;;;;;;;11.27;61.72;101791.22;4935737;29;20118;-81
2022/05/19 05:51:51;;;;;;;4.70;1.33;;;;;;;11.23;64.20;101793.59;4938305;28;20055;-81
2022/05/19 05:54:19;;;;;;;4.43;1.25;;;;;;;11.17;66.24;101782.97;4934031;29;20048;-80
2022/05/19 05:56:48;;;;;;;3.35;1.13;;;;;;;11.13;66.94;101781.94;4934192;29;20569;-81
2022/05/19 05:59:16;;;;;;;4.50;1.25;;;;;;;11.07;66.12;101790.34;4934149;29;20115;-80
2022/05/19 06:01:45;;;;;;;4.03;1.42;;;;;;;10.97;65.62;101790.75;4933970;29;20181;-82
2022/05/19 06:04:13;;;;;;;3.38;1.20;;;;;;;10.89;66.62;101781.75;4934044;29;20387;-82
2022/05/19 06:06:45;;;;;;;5.30;1.65;;;;;;;10.81;68.47;101780.50;4933959;29;20494;-81
2022/05/19 06:09:14;;;;;;;5.25;1.30;;;;;;;10.79;66.92;101787.31;4934398;29;20631;-83
2022/05/19 06:11:43;;;;;;;4.85;1.30;;;;;;;10.76;67.44;101787.19;4933954;29;20062;-82
2022/05/19 06:14:12;;;;;;;4.60;1.25;;;;;;;10.72;67.76;101787.88;4934088;29;20577;-82
2022/05/19 06:16:40;;;;;;;2.63;1.13;;;;;;;10.65;66.82;101790.19;4933545;29;20047;-82
2022/05/19 06:19:09;;;;;;;8.57;1.75;;;;;;;10.60;66.89;101786.47;4933604;29;20118;-83
2022/05/19 06:21:39;;;;;;;4.15;1.48;;;;;;;10.54;67.12;101793.13;4933531;29;20056;-82
2022/05/19 06:24:10;;;;;;;2.97;1.13;;;;;;;10.46;67.19;101782.38;4933443;29;20044;-83
2022/05/19 06:26:39;;;;;;;6.65;2.13;;;;;;;10.41;66.54;101776.13;4933959;29;20087;-81
2022/05/19 06:29:08;;;;;;;4.57;1.23;;;;;;;10.34;68.33;101776.66;4933222;29;20637;-81
2022/05/19 06:31:37;;;;;;;6.82;1.60;;;;;;;10.28;68.33;101777.19;4933332;29;20055;-82
2022/05/19 06:34:06;;;;;;;7.82;1.65;;;;;;;10.24;69.32;101775.31;4932963;29;20489;-82
2022/05/19 06:36:34;;;;;;;4.68;1.02;;;;;;;10.20;70.14;101775.97;4933271;29;20091;-82
2022/05/19 06:39:03;;;;;;;7.72;1.52;;;;;;;10.02;70.08;101763.94;4933275;29;20159;-83
2022/05/19 06:44:19;;;;;;;3.03;1.42;;;;;;;9.96;70.16;101770.50;4933210;29;20059;-82
2022/05/19 06:46:48;;;;;;;6.70;1.35;;;;;;;9.97;70.70;101777.47;4934147;29;20090;-83
2022/05/19 06:49:17;;;;;;;4.50;1.55;;;;;;;9.93;70.86;101781.59;4936947;29;20040;-83
2022/05/19 06:51:46;;;;;;;9.05;1.10;;;;;;;9.88;70.94;101784.78;4933468;28;20059;-82
2022/05/19 06:54:15;;;;;;;4.38;1.10;;;;;;;9.81;71.27;101797.38;4932622;29;20090;-82
2022/05/19 06:56:45;;;;;;;1.98;1.77;;;;;;;9.75;71.51;101804.81;4932689;29;20130;-82
2022/05/19 06:59:15;;;;;;;5.70;1.10;;;;;;;9.67;73.87;101798.41;4933050;29;20052;-81
2022/05/19 07:01:44;;;;;;;2.80;1.00;;;;;;;9.64;73.59;101793.97;4933006;29;20055;-83
2022/05/19 07:04:13;;;;;;;3.35;1.55;;;;;;;9.61;73.48;101803.25;4933302;29;20126;-82
2022/05/19 07:06:41;;;;;;;1.55;0.90;;;;;;;9.53;73.43;101791.63;4932496;29;20051;-81
2022/05/19 07:09:09;;;;;;;7.40;1.27;;;;;;;9.61;75.11;101792.94;4933331;29;20044;-80
2022/05/19 07:11:38;;;;;;;6.95;1.35;;;;;;;9.57;75.42;101791.00;4932984;29;20055;-80
2022/05/19 07:14:09;;;;;;;2.65;1.13;;;;;;;9.59;74.87;101794.53;4932953;29;20058;-80
2022/05/19 07:16:38;;;;;;;4.38;1.20;;;;;;;9.55;74.63;101787.44;4932805;29;20134;-80
2022/05/19 07:21:51;;;;;;;2.42;1.10;;;;;;;9.51;74.69;101790.72;4932797;29;20062;-81
2022/05/19 07:24:22;;;;;;;4.95;1.10;;;;;;;9.52;74.80;101789.88;4932857;29;20079;-80
2022/05/19 07:26:55;;;;;;;1.85;0.85;;;;;;;9.53;75.43;101796.81;4933002;29;20051;-80
2022/05/19 07:29:25;;;;;;;5.43;1.00;;;;;;;9.53;75.29;101794.22;4932868;29;20103;-79
2022/05/19 07:31:58;;;;;;;6.57;2.28;;;;;;;9.49;76.44;101793.19;4932507;29;20052;-80
2022/05/19 07:34:26;;;;;;;3.08;1.23;;;;;;;9.42;76.66;101797.16;4931899;29;20055;-80
2022/05/19 07:36:55;;;;;;;8.45;1.40;;;;;;;9.40;76.49;101796.19;4932702;29;20104;-80
2022/05/19 07:39:24;;;;;;;1.75;0.93;;;;;;;9.46;76.96;101797.31;4932345;29;20525;-81
2022/05/19 07:41:55;;;;;;;4.93;1.42;;;;;;;9.46;75.46;101787.88;4932182;29;20058;-81
2022/05/19 07:44:26;;;;;;;6.00;1.50;;;;;;;9.46;76.57;101786.97;4932565;29;20047;-81
2022/05/19 07:46:55;;;;;;;3.28;1.20;;;;;;;9.45;76.89;101793.84;4936774;29;20051;-82
2022/05/19 07:49:23;;;;;;;3.10;1.05;;;;;;;9.39;76.56;101776.34;4932778;29;20047;-81
2022/05/19 07:51:52;;;;;;;3.65;1.15;;;;;;;9.46;75.91;101785.31;4933378;28;20482;-81
2022/05/19 07:54:23;;;;;;;3.88;1.10;;;;;;;9.44;74.94;101785.22;4932199;29;20107;-80
2022/05/19 07:56:53;;;;;;;2.63;1.27;;;;;;;9.43;75.08;101788.59;4932889;29;20055;-81
2022/05/19 07:59:22;;;;;;;5.07;1.30;;;;;;;9.41;75.37;101797.06;4932509;29;20060;-81
2022/05/19 08:01:52;;;;;;;10.70;1.35;;;;;;;9.39;75.00;101791.84;4932224;29;20048;-82
2022/05/19 08:04:22;;;;;;;3.25;1.25;;;;;;;9.35;75.15;101789.03;4932594;29;20409;-82
2022/05/19 08:06:52;;;;;;;4.32;1.40;;;;;;;9.33;75.54;101796.69;4933867;29;20048;-81
2022/05/19 08:12:08;;;;;;;4.60;1.50;;;;;;;9.31;76.50;101793.16;4935886;29;20065;-82
2022/05/19 08:17:24;;;;;;;3.20;1.27;;;;;;;9.28;75.30;101794.66;4917259;29;20527;-82
2022/05/19 08:19:52;;;;;;;1.73;1.00;;;;;;;9.21;77.61;101806.41;4918516;29;20052;-82
2022/05/19 08:22:21;;;;;;;6.22;1.77;;;;;;;9.13;78.54;101807.69;4935456;29;20091;-87
2022/05/19 08:24:50;;;;;;;2.60;1.08;;;;;;;8.98;78.61;101810.38;4935850;29;20051;-82
2022/05/19 08:27:19;;;;;;;4.10;0.88;;;;;;;8.90;79.87;101809.06;4935632;29;20048;-80
2022/05/19 08:30:01;;;;;;;3.20;1.38;;;;;;;8.74;79.59;101790.19;4935793;29;20142;-80
2022/05/19 08:32:31;;;;;;;3.72;1.70;;;;;;;8.83;79.80;101797.53;4935160;29;20059;-80
2022/05/19 08:34:59;;;;;;;2.72;0.77;;;;;;;8.82;81.73;101793.19;4935320;29;20043;-81
2022/05/19 08:37:28;;;;;;;3.65;1.10;;;;;;;8.79;83.55;101788.72;4935846;29;20073;-81
2022/05/19 08:39:56;;;;;;;9.20;1.92;;;;;;;8.77;85.08;101792.94;4935189;29;20395;-81
2022/05/19 08:42:27;;;;;;;5.78;1.30;;;;;;;8.80;84.56;101793.09;4935741;29;20060;-81
2022/05/19 08:44:59;;;;;;;8.52;1.23;;;;;;;8.84;83.98;101781.22;4939906;29;20044;-80
2022/05/19 08:47:31;;;;;;;1.92;0.90;;;;;;;8.86;85.02;101787.34;4935809;29;20091;-81
2022/05/19 08:50:03;;;;;;;7.88;1.17;;;;;;;8.89;83.71;101791.81;4935816;29;20051;-81
2022/05/19 08:52:39;;;;;;;3.07;1.13;;;;;;;8.85;85.11;101790.75;4934564;29;20956;-82
2022/05/19 08:55:08;;;;;;;3.28;1.05;;;;;;;8.84;83.81;101791.53;4935627;29;20128;-81
2022/05/19 08:57:45;;;;;;;3.67;1.55;;;;;;;8.85;83.93;101790.75;4935398;29;20048;-81
2022/05/19 09:00:19;;;;;;;5.65;1.45;;;;;;;8.76;84.34;101769.63;4935307;29;20159;-81
2022/05/19 09:03:07;;;;;;;3.75;1.10;;;;;;;8.92;83.62;101792.84;4934987;29;20494;-81
2022/05/19 09:05:56;;;;;;;2.03;1.02;;;;;;;8.99;84.73;101797.53;4935279;29;20052;-81
2022/05/19 09:08:36;;;;;;;3.17;1.08;;;;;;;9.04;84.42;101792.59;4894333;29;20139;-79
2022/05/19 09:11:10;;;;;;;1.88;0.80;;;;;;;9.09;85.43;101791.13;4926410;29;20058;-79
2022/05/19 09:13:42;;;;;;;4.25;1.30;;;;;;;9.13;85.66;101781.88;4935184;29;20043;-78
2022/05/19 09:16:13;;;;;;;2.60;1.10;;;;;;;9.16;85.29;101782.03;4934961;29;20051;-79
2022/05/19 09:18:49;;;;;;;1.92;1.15;;;;;;;9.18;86.59;101783.00;4934264;29;20044;-79
2022/05/19 09:21:17;;;;;;;5.15;1.08;;;;;;;9.18;87.46;101785.56;4934842;29;20047;-79
2022/05/19 09:23:45;;;;;;;5.70;1.48;;;;;;;9.18;88.66;101796.78;4934852;29;20052;-78
2022/05/19 09:26:50;;;;;;;5.68;1.40;;;;;;;9.20;88.71;101794.28;4934858;29;20083;-78
2022/05/19 09:29:21;;;;;;;2.63;1.30;;;;;;;9.20;89.52;101796.88;4912999;29;20052;-79
2022/05/19 09:31:52;;;;;;;6.32;1.63;;;;;;;9.22;91.92;101798.72;4913645;29;20060;-78
2022/05/19 09:34:27;;;;;;;2.08;1.30;;;;;;;9.16;95.29;101789.75;4914059;29;20130;-78
2022/05/19 09:37:09;;;;;;;4.93;1.73;;;;;;;9.11;96.97;101793.81;4928865;29;20071;-78
2022/05/19 09:39:50;;;;;;;1.63;1.10;;;;;;;9.12;98.74;101795.59;4933653;29;20055;-78
2022/05/19 09:42:22;;;;;;;3.05;1.30;;;;;;;9.12;100.00;101795.59;4937176;29;20044;-78
2022/05/19 09:44:55;;;;;;;5.75;1.42;;;;;;;9.15;100.00;101794.06;4935090;29;20099;-78
2022/05/19 09:47:30;;;;;;;5.40;1.65;;;;;;;9.20;100.00;101789.13;4934623;29;20127;-78
2022/05/19 09:50:07;;;;;;;6.63;1.33;;;;;;;9.23;100.00;101784.09;4934388;29;20048;-80
2022/05/19 09:52:36;;;;;;;4.60;1.10;;;;;;;9.22;100.00;101784.94;4934573;28;20514;-79
2022/05/19 09:55:08;;;;;;;8.13;1.08;;;;;;;9.21;100.00;101770.25;4934485;29;20450;-77
2022/05/19 09:57:44;;;;;;;7.13;1.48;;;;;;;9.15;100.00;101759.59;4934402;29;20047;-78
2022/05/19 10:00:24;;;;;;;8.20;1.67;;;;;;;9.23;100.00;101784.09;4934672;29;20054;-78
2022/05/19 10:02:56;;;;;;;7.65;1.63;;;;;;;9.19;100.00;101779.63;4934059;29;20127;-79
2022/05/19 10:05:37;;;;;;;7.75;1.48;;;;;;;9.15;100.00;101782.84;4934384;29;20077;-78
2022/05/19 10:08:09;;;;;;;2.65;1.30;;;;;;;9.11;100.00;101778.31;4933986;29;20098;-78
2022/05/19 10:10:48;;;;;;;4.63;1.10;;;;;;;9.13;100.00;101774.13;4934105;29;20508;-78
2022/05/19 10:13:18;;;;;;;3.53;1.27;;;;;;;9.15;100.00;101785.44;4933161;29;20050;-79
2022/05/19 10:15:57;;;;;;;4.40;1.42;;;;;;;9.19;100.00;101782.19;4933683;29;20054;-78
2022/05/19 10:18:39;;;;;;;7.28;1.30;;;;;;;9.21;100.00;101780.59;4933791;29;20055;-78
2022/05/19 10:21:22;;;;;;;5.93;1.05;;;;;;;9.20;100.00;101778.78;4933585;29;20056;-78
2022/05/19 10:24:06;;;;;;;4.07;1.80;;;;;;;9.07;100.00;101753.16;4933876;29;20127;-78
2022/05/19 10:26:47;;;;;;;9.15;1.40;;;;;;;9.25;100.00;101785.06;4933686;29;20054;-79
2022/05/19 10:32:45;;;;;;;3.35;1.30;;;;;;;9.22;100.00;101783.22;4933349;29;20063;-79
2022/05/19 10:35:24;;;;;;;4.32;1.95;;;;;;;9.27;100.00;101775.72;4933349;29;20040;-78
2022/05/19 10:38:20;;;;;;;5.32;1.58;;;;;;;9.29;100.00;101774.09;4933094;29;20079;-78
2022/05/19 10:41:07;;;;;;;4.25;1.73;;;;;;;9.24;100.00;101775.56;4936871;29;20048;-79
2022/05/19 10:43:48;;;;;;;3.80;1.52;;;;;;;9.25;100.00;101779.03;4933293;29;20047;-79
2022/05/19 10:46:19;;;;;;;5.90;1.30;;;;;;;9.27;100.00;101782.59;4933680;29;20066;-79
2022/05/19 10:49:05;;;;;;;4.97;1.45;;;;;;;9.29;100.00;101792.19;4932807;29;20061;-79
2022/05/19 10:51:46;;;;;;;2.42;1.20;;;;;;;9.29;100.00;101794.75;4933030;28;20056;-78
2022/05/19 10:54:35;;;;;;;12.93;1.95;;;;;;;9.31;100.00;101798.31;4932720;29;20134;-79
2022/05/19 10:57:18;;;;;;;4.47;1.38;;;;;;;9.33;100.00;101812.19;4932483;29;20052;-80
2022/05/19 11:00:08;;;;;;;4.85;1.40;;;;;;;9.35;100.00;101814.88;4933213;29;20056;-80
2022/05/19 11:03:08;;;;;;;8.98;1.98;;;;;;;9.38;100.00;101810.72;4933167;29;20106;-80
2022/05/19 11:05:50;;;;;;;5.20;1.70;;;;;;;9.41;100.00;101813.50;4893908;29;20147;-80
2022/05/19 11:08:34;;;;;;;2.77;1.43;;;;;;;9.42;100.00;101816.94;4933233;29;20058;-79
2022/05/19 11:11:13;;;;;;;7.38;2.10;;;;;;;9.45;100.00;101811.94;4933224;29;20286;-80
2022/05/19 11:13:55;;;;;;;5.25;1.35;;;;;;;9.43;100.00;101810.97;4937965;29;20113;-80
2022/05/19 11:16:36;;;;;;;4.25;1.08;;;;;;;9.39;100.00;101809.94;4939423;29;20047;-79
2022/05/19 11:19:08;;;;;;;3.28;1.38;;;;;;;9.41;100.00;101818.66;4932682;29;20478;-79
2022/05/19 11:21:39;;;;;;;;;;;;;;;9.46;100.00;101817.97;4933041;29;20048;-80
2022/05/19 11:24:14;;;;;;;8.27;1.83;;;;;;;9.50;100.00;101825.09;4932342;29;19934;-79
2022/05/19 11:26:49;;;;;;;4.40;1.50;;;;;;;9.54;100.00;101827.91;4932780;29;20541;-79
2022/05/19 11:29:26;;;;;;;7.55;2.08;;;;;;;9.55;100.00;101837.44;4932805;29;20564;-78
2022/05/19 11:32:03;;;;;;;3.75;1.58;;;;;;;9.56;100.00;101835.75;4932337;29;20050;-79
2022/05/19 11:34:39;;;;;;;3.45;1.85;;;;;;;9.57;100.00;101840.09;4932770;29;20086;-77
2022/05/19 11:37:20;;;;;;;11.63;2.05;;;;;;;9.58;100.00;101835.00;4933344;29;20103;-76
2022/05/19 11:40:00;;;;;;;3.67;1.52;;;;;;;9.60;100.00;101838.56;4935422;29;20486;-76
2022/05/19 11:42:38;;;;;;;11.40;1.95;;;;;;;9.60;100.00;101835.09;4935201;29;20052;-76
2022/05/19 11:45:10;;;;;;;5.55;1.52;;;;;;;9.58;100.00;101831.53;4937339;29;20056;-76
2022/05/19 11:56:23;;;;;;;12.20;2.70;;;;;;;9.34;100.00;101819.13;4898405;29;20063;-76
2022/05/19 11:58:53;;;;;;;5.15;1.83;;;;;;;9.30;100.00;101819.81;4898351;29;20045;-76
2022/05/19 12:01:26;;;;;;;10.13;1.65;;;;;;;9.30;100.00;101827.56;4898585;29;20095;-76
2022/05/19 12:04:02;;;;;;;6.63;1.75;;;;;;;9.31;100.00;101826.72;4898246;29;20419;-76
2022/05/19 12:06:33;;;;;;;5.63;1.50;;;;;;;9.30;100.00;101822.38;4897979;29;20587;-76
2022/05/19 12:09:06;;;;;;;4.72;1.75;;;;;;;9.22;100.00;101809.06;4898615;29;20105;-76
2022/05/19 12:11:52;;;;;;;4.53;1.60;;;;;;;9.15;100.00;101800.91;4898093;29;20271;-75
2022/05/19 12:14:36;;;;;;;5.10;2.10;;;;;;;9.14;100.00;101805.19;4897212;29;20059;-76
2022/05/19 12:17:33;;;;;;;8.13;1.58;;;;;;;9.11;100.00;101796.41;4898141;29;20502;-76
2022/05/19 12:20:03;;;;;;;14.57;1.92;;;;;;;9.09;100.00;101801.47;4913326;29;20044;-76
2022/05/19 12:22:36;;;;;;;5.60;1.52;;;;;;;9.09;100.00;101788.56;4916358;29;20055;-76